Time;durP1;ratioP1;P1;durP2;ratioP2;P2;SDS_P1;SDS_P2;PMS_P1;PMS_P2;Temp;Humidity;BMP_temperature;BMP_pressure;BME280_temperature;BME280_humidity;BME280_pressure;Samples;Min_cycle;Max_cycle;Signal;HPM_P1;HPM_P2
2021/05/03 00:02:05;;;;;;;;;;;;;;;4.90;83.34;100652.03;1615306;88;20770;-79
2021/05/03 00:04:34;;;;;;;;;;;;;;;4.90;83.35;100652.03;1647003;85;20266;-79
2021/05/03 00:07:00;;;;;;;;;;;;;;;4.91;83.48;100652.47;1644571;86;20762;-79
2021/05/03 00:09:26;;;;;;;;;;;;;;;4.94;83.48;100644.80;1640511;85;20282;-79
2021/05/03 00:11:52;;;;;;;;;;;;;;;4.94;83.44;100648.22;1609053;87;20295;-79
2021/05/03 00:14:19;;;;;;;;;;;;;;;4.91;83.26;100652.04;1622364;87;20295;-78
2021/05/03 00:16:45;;;;;;;;;;;;;;;4.90;83.40;100654.59;1634684;86;20302;-78
2021/05/03 00:19:11;;;;;;;;;;;;;;;4.90;83.33;100658.02;1651475;85;20206;-78
2021/05/03 00:21:37;;;;;;;;;;;;;;;4.85;83.17;100660.11;1621948;87;20283;-78
2021/05/03 00:24:05;;;;;;;;;;;;;;;4.83;83.38;100657.95;1647108;85;20297;-78
2021/05/03 00:26:31;;;;;;;;;;;;;;;4.85;83.43;100665.23;1621252;87;20298;-78
2021/05/03 00:28:57;;;;;;;;;;;;;;;4.87;83.48;100659.69;1634403;87;20359;-79
2021/05/03 00:31:23;;;;;;;;;;;;;;;4.89;83.53;100665.27;1655643;85;20230;-79
2021/05/03 00:33:49;;;;;;;;;;;;;;;4.86;83.33;100659.26;1629823;87;20223;-79
2021/05/03 00:36:15;;;;;;;;;;;;;;;4.85;83.33;100665.23;1647375;85;20282;-79
2021/05/03 00:38:41;;;;;;;;;;;;;;;4.83;83.33;100665.64;1615605;87;20322;-79
2021/05/03 00:41:07;;;;;;;;;;;;;;;4.83;83.45;100674.18;1652609;85;20304;-79
2021/05/03 00:43:33;;;;;;;;;;;;;;;4.83;83.45;100681.01;1658297;85;20260;-79
2021/05/03 00:45:59;;;;;;;;;;;;;;;4.83;83.39;100678.45;1649425;85;20269;-79
2021/05/03 00:48:37;;;;;;;;;;;;;;;4.81;83.44;100681.00;1636066;87;20296;-79
2021/05/03 00:51:03;;;;;;;;;;;;;;;4.83;83.48;100684.84;1603193;88;20723;-79
2021/05/03 00:53:29;;;;;;;;;;;;;;;4.81;83.48;100679.72;1631318;87;20286;-79
2021/05/03 00:55:55;;;;;;;;;;;;;;;4.83;83.47;100682.29;1600153;88;20326;-79
2021/05/03 00:58:22;;;;;;;;;;;;;;;4.84;83.51;100687.42;1651046;85;20165;-79
2021/05/03 01:00:48;;;;;;;;;;;;;;;4.80;83.35;100694.64;1661316;85;20280;-79
2021/05/03 01:03:15;;;;;;;;;;;;;;;4.80;83.46;100693.37;1652094;85;20300;-79
2021/05/03 01:05:41;;;;;;;;;;;;;;;4.78;83.44;100694.20;1636675;85;20218;-79
2021/05/03 01:08:07;;;;;;;;;;;;;;;4.81;83.53;100692.95;1628174;87;20280;-79
2021/05/03 01:10:33;;;;;;;;;;;;;;;4.81;83.48;100692.52;1608569;88;20175;-79
2021/05/03 01:12:59;;;;;;;;;;;;;;;4.79;83.42;100690.80;1643061;87;20768;-79
2021/05/03 01:15:27;;;;;;;;;;;;;;;4.79;83.43;100691.66;1599095;88;20277;-79
2021/05/03 01:18:00;;;;;;;;;;;;;;;4.78;83.47;100691.64;1600286;88;20305;-79
2021/05/03 01:20:29;;;;;;;;;;;;;;;4.74;83.31;100691.17;1649913;87;20293;-79
2021/05/03 01:22:57;;;;;;;;;;;;;;;4.73;83.50;100686.89;1595924;88;20261;-80
2021/05/03 01:25:30;;;;;;;;;;;;;;;4.75;83.53;100687.77;1625717;87;20213;-80
2021/05/03 01:27:56;;;;;;;;;;;;;;;4.77;83.61;100689.92;1614129;87;20315;-80
2021/05/03 01:30:31;;;;;;;;;;;;;;;4.74;83.51;100692.45;1630932;87;20342;-80
2021/05/03 01:33:00;;;;;;;;;;;;;;;4.73;83.55;100689.45;1617132;87;20288;-81
2021/05/03 01:35:27;;;;;;;;;;;;;;;4.71;83.49;100690.72;1624424;85;20302;-81
2021/05/03 01:37:54;;;;;;;;;;;;;;;4.73;83.58;100691.59;1646339;85;20186;-81
2021/05/03 01:40:29;;;;;;;;;;;;;;;4.75;83.64;100691.61;1623171;87;20294;-81
2021/05/03 01:42:56;;;;;;;;;;;;;;;4.73;83.50;100694.58;1615828;87;20306;-81
2021/05/03 01:45:24;;;;;;;;;;;;;;;4.70;83.48;100695.83;1616147;87;20261;-81
2021/05/03 01:47:51;;;;;;;;;;;;;;;4.68;83.52;100691.97;1638371;85;20323;-81
2021/05/03 01:50:19;;;;;;;;;;;;;;;4.69;83.57;100694.11;1652173;85;20276;-80
2021/05/03 01:52:45;;;;;;;;;;;;;;;4.67;83.54;100689.02;1621674;87;20302;-80
2021/05/03 01:55:13;;;;;;;;;;;;;;;4.66;83.56;100696.26;1652411;85;20263;-80
2021/05/03 01:57:39;;;;;;;;;;;;;;;4.68;83.64;100694.53;1652598;85;20268;-80
2021/05/03 02:00:07;;;;;;;;;;;;;;;4.68;83.58;100694.53;1651825;85;21324;-80
2021/05/03 02:02:33;;;;;;;;;;;;;;;4.70;83.63;100695.83;1622994;87;20315;-79
2021/05/03 02:05:07;;;;;;;;;;;;;;;4.73;83.73;100693.30;1653315;85;20251;-79
2021/05/03 02:07:34;;;;;;;;;;;;;;;4.74;83.75;100693.31;1652133;85;20168;-79
2021/05/03 02:10:00;;;;;;;;;;;;;;;4.76;83.73;100695.89;1651853;85;20262;-79
2021/05/03 02:12:25;;;;;;;;;;;;;;;4.76;83.73;100689.48;1651512;85;20270;-79
2021/05/03 02:14:51;;;;;;;;;;;;;;;4.75;83.54;100695.45;1645080;85;20172;-79
2021/05/03 02:17:36;;;;;;;;;;;;;;;4.73;83.62;100695.44;1631509;85;20269;-79
2021/05/03 02:20:09;;;;;;;;;;;;;;;4.74;83.66;100702.70;1622266;87;20296;-79
2021/05/03 02:22:35;;;;;;;;;;;;;;;4.74;83.65;100696.30;1631751;87;20304;-78
2021/05/03 02:25:01;;;;;;;;;;;;;;;4.70;83.53;100696.69;1648364;85;20295;-79
2021/05/03 02:27:28;;;;;;;;;;;;;;;4.71;83.66;100700.97;1649864;85;20274;-79
2021/05/03 02:29:54;;;;;;;;;;;;;;;4.73;83.73;100700.56;1657424;85;20346;-79
2021/05/03 02:32:20;;;;;;;;;;;;;;;4.72;83.65;100702.69;1657900;85;20271;-79
2021/05/03 02:35:08;;;;;;;;;;;;;;;4.74;83.74;100704.84;1657683;86;20307;-80
2021/05/03 02:37:34;;;;;;;;;;;;;;;4.75;83.72;100709.12;1657274;84;20264;-80
2021/05/03 02:40:00;;;;;;;;;;;;;;;4.76;83.65;100709.97;1634974;86;20269;-80
2021/05/03 02:42:30;;;;;;;;;;;;;;;4.75;83.62;100711.68;1609382;87;20258;-80
2021/05/03 02:44:56;;;;;;;;;;;;;;;4.76;83.68;100714.67;1636604;86;20290;-79
2021/05/03 02:47:23;;;;;;;;;;;;;;;4.78;83.69;100714.27;1617821;87;20308;-79
2021/05/03 02:49:50;;;;;;;;;;;;;;;4.80;83.74;100713.00;1637417;86;20280;-79
2021/05/03 02:52:17;;;;;;;;;;;;;;;4.82;83.73;100716.02;1638191;86;20262;-79
2021/05/03 02:54:43;;;;;;;;;;;;;;;4.84;83.72;100719.45;1607327;88;20278;-79
2021/05/03 02:57:21;;;;;;;;;;;;;;;4.85;83.67;100719.02;1607419;88;20268;-79
2021/05/03 02:59:47;;;;;;;;;;;;;;;4.87;83.81;100720.76;1660137;85;20219;-79
2021/05/03 03:02:13;;;;;;;;;;;;;;;4.87;83.70;100723.74;1657771;85;20381;-79
2021/05/03 03:04:39;;;;;;;;;;;;;;;4.88;83.76;100726.74;1648336;85;20260;-79
2021/05/03 03:07:05;;;;;;;;;;;;;;;4.89;83.69;100720.77;1648479;85;20268;-79
2021/05/03 03:09:31;;;;;;;;;;;;;;;4.88;83.77;100728.02;1657707;85;20279;-79
2021/05/03 03:11:59;;;;;;;;;;;;;;;4.88;83.75;100728.02;1670546;85;20254;-79
2021/05/03 03:14:25;;;;;;;;;;;;;;;4.88;83.75;100735.28;1624100;86;20293;-79
2021/05/03 03:16:51;;;;;;;;;;;;;;;4.89;83.77;100736.14;1609087;88;20262;-79
2021/05/03 03:19:18;;;;;;;;;;;;;;;4.91;83.81;100747.27;1617931;87;20255;-79
2021/05/03 03:21:44;;;;;;;;;;;;;;;4.94;83.86;100745.59;1650146;86;20777;-79
2021/05/03 03:24:11;;;;;;;;;;;;;;;4.97;83.87;100756.29;1607544;87;20254;-79
2021/05/03 03:26:37;;;;;;;;;;;;;;;5.00;83.89;100757.59;1628264;87;20284;-79
2021/05/03 03:29:04;;;;;;;;;;;;;;;5.02;83.83;100758.89;1622854;87;20204;-79
2021/05/03 03:31:30;;;;;;;;;;;;;;;5.04;83.88;100758.48;1625568;87;20268;-79
2021/05/03 03:33:56;;;;;;;;;;;;;;;5.05;83.90;100759.78;1605354;88;20751;-79
2021/05/03 03:36:22;;;;;;;;;;;;;;;5.08;83.89;100764.08;1621365;87;20327;-79
2021/05/03 03:38:48;;;;;;;;;;;;;;;5.09;83.87;100765.79;1633517;87;20309;-79
2021/05/03 03:41:14;;;;;;;;;;;;;;;5.09;83.86;100767.93;1604618;88;20836;-79
2021/05/03 03:43:41;;;;;;;;;;;;;;;5.09;83.77;100770.50;1628532;87;20330;-79
2021/05/03 03:46:07;;;;;;;;;;;;;;;5.10;83.91;100768.37;1588641;88;20243;-79
2021/05/03 03:48:33;;;;;;;;;;;;;;;5.08;83.79;100775.19;1604531;88;20354;-79
2021/05/03 03:50:59;;;;;;;;;;;;;;;5.09;83.87;100775.63;1584069;88;20320;-79
2021/05/03 03:53:25;;;;;;;;;;;;;;;5.11;83.88;100775.64;1616883;87;20784;-79
2021/05/03 03:55:51;;;;;;;;;;;;;;;5.10;83.82;100779.05;1614550;87;20178;-79
2021/05/03 03:58:19;;;;;;;;;;;;;;;5.09;83.82;100785.87;1497429;87;10000716;-79
2021/05/03 04:00:45;;;;;;;;;;;;;;;5.10;83.88;100788.02;1620363;87;20315;-79
2021/05/03 04:03:11;;;;;;;;;;;;;;;5.12;83.87;100787.61;1615374;87;20306;-79
2021/05/03 04:08:28;;;;;;;;;;;;;;;5.17;83.96;100786.80;1648239;85;20259;-79
2021/05/03 04:21:51;;;;;;;;;;;;;;;5.39;84.04;100801.05;1644695;85;20456;-79
2021/05/03 04:24:15;;;;;;;;;;;;;;;5.43;84.01;100790.83;1652221;85;20231;-79
2021/05/03 04:26:36;;;;;;;;;;;;;;;5.48;83.92;100799.84;1602877;88;20287;-79
2021/05/03 04:29:05;;;;;;;;;;;;;;;5.49;83.97;100798.58;1594455;89;20274;-79
2021/05/03 04:31:31;;;;;;;;;;;;;;;5.54;84.00;100804.59;1612321;87;20192;-79
2021/05/03 04:33:57;;;;;;;;;;;;;;;5.60;84.06;100799.94;1647351;85;20635;-79
2021/05/03 04:36:23;;;;;;;;;;;;;;;5.67;83.98;100804.27;1645084;86;20254;-79
2021/05/03 04:38:49;;;;;;;;;;;;;;;5.69;83.93;100806.42;1623779;87;20297;-79
2021/05/03 04:41:15;;;;;;;;;;;;;;;5.73;84.00;100810.69;1622590;87;20316;-80
2021/05/03 04:43:42;;;;;;;;;;;;;;;5.76;83.87;100813.70;1647816;86;20275;-80
2021/05/03 04:46:11;;;;;;;;;;;;;;;5.80;83.97;100811.59;1639000;86;20285;-80
2021/05/03 04:48:37;;;;;;;;;;;;;;;5.84;83.88;100810.77;1643256;85;20230;-80
2021/05/03 04:51:03;;;;;;;;;;;;;;;5.85;83.81;100817.61;1648967;85;20473;-80
2021/05/03 04:53:29;;;;;;;;;;;;;;;5.87;83.87;100817.20;1653321;85;20255;-80
2021/05/03 04:55:55;;;;;;;;;;;;;;;5.93;83.94;100813.00;1646963;85;20243;-80
2021/05/03 04:58:26;;;;;;;;;;;;;;;5.98;83.91;100815.59;1648107;86;38293;-81
2021/05/03 05:00:52;;;;;;;;;;;;;;;6.10;84.03;100813.09;1646587;85;20271;-80
2021/05/03 05:03:18;;;;;;;;;;;;;;;6.23;83.99;100814.02;1648926;85;20160;-80
2021/05/03 05:06:00;;;;;;;;;;;;;;;6.35;83.94;100822.17;1660225;85;20192;-79
2021/05/03 05:08:26;;;;;;;;;;;;;;;6.45;83.96;100817.09;1657771;85;20730;-79
2021/05/03 05:10:52;;;;;;;;;;;;;;;6.54;83.92;100820.98;1663112;85;20266;-80
2021/05/03 05:13:18;;;;;;;;;;;;;;;6.59;83.79;100824.84;1660206;85;20199;-80
2021/05/03 05:15:44;;;;;;;;;;;;;;;6.64;83.71;100833.00;1633217;87;20445;-80
2021/05/03 05:18:11;;;;;;;;;;;;;;;6.67;83.77;100826.16;1641228;87;20208;-80
2021/05/03 05:20:37;;;;;;;;;;;;;;;6.73;83.72;100831.32;1632886;87;20260;-80
2021/05/03 05:23:05;;;;;;;;;;;;;;;6.72;83.68;100835.60;1635604;86;20165;-81
2021/05/03 05:25:32;;;;;;;;;;;;;;;6.72;83.64;100841.17;1639128;87;20257;-81
2021/05/03 05:27:58;;;;;;;;;;;;;;;6.73;83.65;100842.89;1632428;84;20177;-81
2021/05/03 05:30:24;;;;;;;;;;;;;;;6.70;83.52;100846.73;1638255;87;20165;-81
2021/05/03 05:32:50;;;;;;;;;;;;;;;6.64;83.46;100848.42;1641720;87;20668;-81
2021/05/03 05:35:16;;;;;;;;;;;;;;;6.61;83.54;100850.13;1647890;87;20312;-81
2021/05/03 05:37:43;;;;;;;;;;;;;;;6.60;83.61;100853.12;1635666;87;20273;-81
2021/05/03 05:40:09;;;;;;;;;;;;;;;6.63;83.67;100855.70;1644683;87;20149;-81
2021/05/03 05:42:35;;;;;;;;;;;;;;;6.66;83.64;100859.13;1637110;87;20261;-81
2021/05/03 05:45:02;;;;;;;;;;;;;;;6.59;83.50;100861.67;1633135;87;20254;-81
2021/05/03 05:47:28;;;;;;;;;;;;;;;6.53;83.47;100861.65;1634009;87;20330;-81
2021/05/03 05:49:54;;;;;;;;;;;;;;;6.52;83.58;100859.07;1637992;87;20344;-80
2021/05/03 05:52:21;;;;;;;;;;;;;;;6.50;83.58;100864.20;1639534;87;20774;-80
2021/05/03 05:54:47;;;;;;;;;;;;;;;6.49;83.65;100871.48;1644875;87;20197;-81
2021/05/03 05:57:13;;;;;;;;;;;;;;;6.51;83.71;100874.91;1642802;87;20393;-81
2021/05/03 05:59:39;;;;;;;;;;;;;;;6.50;83.66;100873.62;1636039;87;20361;-81
2021/05/03 06:02:08;;;;;;;;;;;;;;;6.51;83.65;100876.20;1618419;86;20327;-82
2021/05/03 06:04:36;;;;;;;;;;;;;;;6.49;83.52;100875.33;1636216;87;20932;-84
2021/05/03 06:07:02;;;;;;;;;;;;;;;6.47;83.66;100880.89;1623075;87;20296;-82
2021/05/03 06:09:28;;;;;;;;;;;;;;;6.49;83.69;100883.03;1621612;87;20298;-81
2021/05/03 06:11:54;;;;;;;;;;;;;;;6.49;83.62;100882.17;1623929;87;20787;-82
2021/05/03 06:14:20;;;;;;;;;;;;;;;6.48;83.58;100886.88;1644181;85;20754;-82
2021/05/03 06:16:46;;;;;;;;;;;;;;;6.52;83.72;100893.75;1644032;85;20613;-82
2021/05/03 06:19:13;;;;;;;;;;;;;;;6.56;83.73;100887.35;1642753;85;20250;-81
2021/05/03 06:21:39;;;;;;;;;;;;;;;6.61;83.73;100893.38;1648763;85;20334;-80
2021/05/03 06:24:06;;;;;;;;;;;;;;;6.70;83.77;100896.41;1643300;85;20300;-82
2021/05/03 06:26:32;;;;;;;;;;;;;;;6.70;83.55;100895.55;1642797;85;20349;-80
2021/05/03 06:28:58;;;;;;;;;;;;;;;6.72;83.67;100904.98;1654560;85;20245;-79
2021/05/03 06:31:24;;;;;;;;;;;;;;;6.75;83.69;100906.28;1645580;85;20693;-80
2021/05/03 06:33:50;;;;;;;;;;;;;;;6.76;83.58;100895.58;1617113;87;20315;-82
2021/05/03 06:36:16;;;;;;;;;;;;;;;6.73;83.55;100906.70;1612315;87;20323;-80
2021/05/03 06:38:42;;;;;;;;;;;;;;;6.77;83.64;100908.83;1619932;87;20288;-80
2021/05/03 06:41:08;;;;;;;;;;;;;;;6.81;83.66;100904.99;1635880;87;20643;-82
2021/05/03 06:43:35;;;;;;;;;;;;;;;6.84;83.63;100908.86;1623768;87;20184;-80
2021/05/03 06:46:01;;;;;;;;;;;;;;;6.85;83.59;100909.72;1621180;87;20323;-81
2021/05/03 06:48:27;;;;;;;;;;;;;;;6.85;83.52;100908.44;1654044;85;20422;-82
2021/05/03 06:50:53;;;;;;;;;;;;;;;6.86;83.56;100912.30;1666148;85;20591;-83
2021/05/03 06:53:19;;;;;;;;;;;;;;;6.86;83.52;100916.16;1649000;85;20288;-83
2021/05/03 06:55:46;;;;;;;;;;;;;;;6.83;83.43;100916.14;1653339;85;20331;-82
2021/05/03 06:58:14;;;;;;;;;;;;;;;6.85;83.50;100916.14;1643821;85;20609;-82
2021/05/03 07:00:40;;;;;;;;;;;;;;;6.88;83.55;100918.73;1642288;85;20294;-82
2021/05/03 07:03:11;;;;;;;;;;;;;;;6.91;83.55;100920.03;1619196;87;20514;-83
2021/05/03 07:05:39;;;;;;;;;;;;;;;6.91;83.44;100918.31;1629479;87;20282;-77
2021/05/03 07:08:06;;;;;;;;;;;;;;;6.91;83.45;100917.45;1617151;87;20608;-81
2021/05/03 07:10:33;;;;;;;;;;;;;;;6.89;83.42;100922.59;1622854;87;20598;-83
2021/05/03 07:13:01;;;;;;;;;;;;;;;6.92;83.61;100920.03;1621622;87;20316;-83
2021/05/03 07:15:27;;;;;;;;;;;;;;;6.97;83.62;100924.77;1626330;87;20638;-83
2021/05/03 07:17:53;;;;;;;;;;;;;;;7.00;83.54;100930.34;1618255;87;20316;-82
2021/05/03 07:20:20;;;;;;;;;;;;;;;7.02;83.49;100934.20;1623644;87;20798;-82
2021/05/03 07:22:46;;;;;;;;;;;;;;;7.03;83.53;100938.07;1620130;87;21055;-82
2021/05/03 07:25:13;;;;;;;;;;;;;;;7.06;83.50;100934.66;1625608;87;21080;-82
2021/05/03 07:27:40;;;;;;;;;;;;;;;7.09;83.56;100935.95;1620729;87;21046;-82
2021/05/03 07:30:08;;;;;;;;;;;;;;;7.16;83.50;100941.55;1630957;85;20638;-83
2021/05/03 07:32:35;;;;;;;;;;;;;;;7.17;83.32;100935.55;1616592;87;20298;-84
2021/05/03 07:35:01;;;;;;;;;;;;;;;7.18;83.42;100944.55;1624467;87;20714;-81
2021/05/03 07:37:29;;;;;;;;;;;;;;;7.30;83.58;100938.13;1624206;87;20744;-82
2021/05/03 07:39:55;;;;;;;;;;;;;;;7.46;83.61;100939.45;1623820;87;20238;-82
2021/05/03 07:42:21;;;;;;;;;;;;;;;7.54;83.46;100946.76;1630896;87;20739;-82
2021/05/03 07:44:51;;;;;;;;;;;;;;;7.61;83.35;100947.20;1634528;87;20202;-85
2021/05/03 07:47:17;;;;;;;;;;;;;;;7.64;83.34;100950.64;1615537;87;20615;-82
2021/05/03 07:49:43;;;;;;;;;;;;;;;7.63;83.23;100956.64;1633501;87;20461;-81
2021/05/03 07:52:13;;;;;;;;;;;;;;;7.62;83.12;100959.21;1639252;87;21026;-82
2021/05/03 07:54:39;;;;;;;;;;;;;;;7.62;83.31;100960.07;1638206;87;20598;-81
2021/05/03 07:57:06;;;;;;;;;;;;;;;7.66;83.31;100962.65;1644372;87;20224;-84
2021/05/03 07:59:32;;;;;;;;;;;;;;;7.71;83.33;100967.38;1640395;87;20297;-85
2021/05/03 08:01:58;;;;;;;;;;;;;;;7.69;83.11;100971.23;1623861;87;20211;-82
2021/05/03 08:04:24;;;;;;;;;;;;;;;7.67;83.02;100970.80;1595826;87;20259;-82
2021/05/03 08:06:55;;;;;;;;;;;;;;;7.69;83.03;100966.52;1607185;87;20307;-83
2021/05/03 08:09:22;;;;;;;;;;;;;;;7.68;82.91;100971.23;1628941;87;20489;-81
2021/05/03 08:11:48;;;;;;;;;;;;;;;7.67;82.98;100974.66;1624253;87;20245;-83
2021/05/03 08:14:18;;;;;;;;;;;;;;;7.67;83.06;100975.52;1617027;87;20202;-83
2021/05/03 08:16:42;;;;;;;;;;;;;;;7.64;82.90;100976.80;1612722;84;20583;-82
2021/05/03 08:19:08;;;;;;;;;;;;;;;7.62;83.03;100984.52;1621851;87;20303;-87
2021/05/03 08:21:34;;;;;;;;;;;;;;;7.59;83.01;100992.23;1630047;87;20311;-83
2021/05/03 08:24:00;;;;;;;;;;;;;;;7.59;82.98;100993.95;1621838;87;20583;-83
2021/05/03 08:26:26;;;;;;;;;;;;;;;7.58;83.00;100996.09;1623930;87;21030;-84
2021/05/03 08:28:52;;;;;;;;;;;;;;;7.53;82.89;101003.80;1623443;87;20270;-85
2021/05/03 08:31:18;;;;;;;;;;;;;;;7.51;82.95;101004.22;1621250;87;20806;-83
2021/05/03 08:33:44;;;;;;;;;;;;;;;7.49;83.03;101009.78;1631117;86;20289;-81
2021/05/03 08:36:10;;;;;;;;;;;;;;;7.48;82.93;101009.36;1626289;86;20964;-82
2021/05/03 08:38:37;;;;;;;;;;;;;;;7.42;82.86;101009.77;1658138;85;20295;-83
2021/05/03 08:41:04;;;;;;;;;;;;;;;7.30;82.67;101017.01;1622528;86;21052;-82
2021/05/03 08:43:33;;;;;;;;;;;;;;;7.18;82.57;101015.28;1623347;87;20622;-82
2021/05/03 08:46:04;;;;;;;;;;;;;;;7.12;82.77;101023.39;1619272;87;20802;-82
2021/05/03 08:48:39;;;;;;;;;;;;;;;7.07;82.66;101019.52;1624545;86;20280;-82
2021/05/03 08:51:14;;;;;;;;;;;;;;;7.01;82.69;101016.05;1664682;85;20302;-84
2021/05/03 08:53:40;;;;;;;;;;;;;;;7.00;82.85;101017.77;1637126;85;20688;-84
2021/05/03 08:56:01;;;;;;;;;;;;;;;6.95;82.71;101018.16;1656931;85;20529;-84
2021/05/03 08:58:28;;;;;;;;;;;;;;;6.93;82.82;101012.15;1664452;85;20304;-83
2021/05/03 09:00:56;;;;;;;;;;;;;;;6.98;82.98;101012.61;1639888;86;21145;-82
2021/05/03 09:03:23;;;;;;;;;;;;;;;7.08;83.05;101004.52;1629836;86;20328;-82
2021/05/03 09:05:49;;;;;;;;;;;;;;;7.20;83.06;101002.42;1636778;86;20291;-82
2021/05/03 09:08:26;;;;;;;;;;;;;;;7.29;82.86;101009.72;1638482;86;20652;-81
2021/05/03 09:10:55;;;;;;;;;;;;;;;7.34;82.78;101003.73;1638696;86;20609;-81
2021/05/03 09:13:33;;;;;;;;;;;;;;;7.39;82.76;101000.75;1670323;85;20985;-82
2021/05/03 09:16:20;;;;;;;;;;;;;;;7.45;82.68;101003.34;1663782;85;20632;-82
2021/05/03 09:18:50;;;;;;;;;;;;;;;7.52;82.72;101001.22;1655315;85;21024;-82
2021/05/03 09:21:32;;;;;;;;;;;;;;;7.60;82.71;100999.53;1642677;86;20770;-81
2021/05/03 09:24:07;;;;;;;;;;;;;;;7.68;82.64;101000.41;1636758;86;20209;-82
2021/05/03 09:26:35;;;;;;;;;;;;;;;7.75;82.65;101001.27;1636712;85;20339;-81
2021/05/03 09:29:21;;;;;;;;;;;;;;;7.89;82.80;100999.55;1639485;85;20617;-82
2021/05/03 09:32:11;;;;;;;;;;;;;;;8.04;82.72;101002.14;1638199;87;20321;-81
2021/05/03 09:34:41;;;;;;;;;;;;;;;8.16;82.50;100999.57;1638051;87;20329;-81
2021/05/03 09:37:28;;;;;;;;;;;;;;;8.26;82.59;100996.14;1634082;86;20267;-81
2021/05/03 09:39:57;;;;;;;;;;;;;;;8.37;82.54;100999.14;1635217;87;20301;-81
2021/05/03 09:42:23;;;;;;;;;;;;;;;8.45;82.38;101000.84;1654692;85;20460;-80
2021/05/03 09:45:04;;;;;;;;;;;;;;;8.54;82.39;101000.84;1654210;85;20318;-78
2021/05/03 09:47:41;;;;;;;;;;;;;;;8.63;82.59;100993.09;1654856;85;20813;-77
2021/05/03 09:50:11;;;;;;;;;;;;;;;8.78;82.47;101000.36;1650634;85;21246;-77
2021/05/03 09:52:37;;;;;;;;;;;;;;;8.83;82.18;100992.19;1657148;85;20297;-79
2021/05/03 09:55:04;;;;;;;;;;;;;;;8.82;82.11;100990.04;1651250;85;20289;-77
2021/05/03 09:57:30;;;;;;;;;;;;;;;8.86;82.17;100993.00;1657135;85;20822;-77
2021/05/03 10:00:00;;;;;;;;;;;;;;;8.94;82.18;100988.68;1657446;85;20225;-76
2021/05/03 10:02:30;;;;;;;;;;;;;;;8.96;82.04;100987.39;1650022;85;20513;-77
2021/05/03 10:05:00;;;;;;;;;;;;;;;8.97;82.02;100983.95;1633816;87;20469;-79
2021/05/03 10:07:28;;;;;;;;;;;;;;;8.88;81.87;100992.57;1633741;87;20421;-78
2021/05/03 10:10:08;;;;;;;;;;;;;;;8.74;81.89;100999.52;1631843;87;20568;-79
2021/05/03 10:12:25;;;;;;;;;;;;;;;8.60;81.95;100998.25;1629844;87;20309;-79
2021/05/03 10:14:52;;;;;;;;;;;;;;;8.55;82.15;100994.82;1630149;86;20316;-78
2021/05/03 10:17:18;;;;;;;;;;;;;;;8.61;82.28;101002.55;1637184;86;20727;-79
2021/05/03 10:19:45;;;;;;;;;;;;;;;8.57;82.06;100996.97;1628962;86;21172;-78
2021/05/03 10:22:22;;;;;;;;;;;;;;;8.46;82.01;101005.57;1639071;87;20564;-78
2021/05/03 10:24:50;;;;;;;;;;;;;;;8.29;81.89;101010.30;1639913;87;20585;-78
2021/05/03 10:27:18;;;;;;;;;;;;;;;8.13;81.99;101009.87;1636265;87;20525;-79
2021/05/03 10:29:46;;;;;;;;;;;;;;;8.00;82.04;101012.01;1633877;87;20313;-78
2021/05/03 10:32:24;;;;;;;;;;;;;;;7.86;82.25;101009.41;1630124;87;20292;-78
2021/05/03 10:34:53;;;;;;;;;;;;;;;7.80;82.43;101015.02;1634965;87;20285;-79
2021/05/03 10:37:41;;;;;;;;;;;;;;;7.79;82.46;101009.00;1633260;87;20300;-79
2021/05/03 10:40:23;;;;;;;;;;;;;;;7.75;82.42;101011.14;1633790;86;20325;-78
2021/05/03 10:43:12;;;;;;;;;;;;;;;7.72;82.44;101007.70;1627826;86;20294;-81
2021/05/03 10:45:57;;;;;;;;;;;;;;;7.67;82.43;101007.69;1637351;87;20308;-83
2021/05/03 10:49:20;;;;;;;;;;;;;;;7.69;82.52;101010.27;1631887;87;20273;-80
2021/05/03 10:51:10;;;;;;;;;;;;;;;7.66;82.39;101012.84;1581210;88;20313;-81
2021/05/03 10:56:10;;;;;;;;;;;;;;;7.49;82.36;101015.36;1635324;87;20538;-80
2021/05/03 10:58:57;;;;;;;;;;;;;;;7.40;82.42;101011.05;1658430;85;20712;-78
2021/05/03 11:01:23;;;;;;;;;;;;;;;7.33;82.42;101019.59;1660415;85;20317;-77
2021/05/03 11:03:59;;;;;;;;;;;;;;;7.26;82.66;101016.59;1657760;85;20605;-77
2021/05/03 11:06:50;;;;;;;;;;;;;;;7.26;82.74;101022.59;1625970;87;20328;-78
2021/05/03 11:09:38;;;;;;;;;;;;;;;7.21;82.59;101023.00;1617997;87;20279;-80
2021/05/03 11:12:10;;;;;;;;;;;;;;;7.15;82.67;101021.69;1614247;87;21226;-78
2021/05/03 11:14:41;;;;;;;;;;;;;;;7.16;82.89;101016.98;1626196;86;20322;-82
2021/05/03 11:17:17;;;;;;;;;;;;;;;7.22;82.93;101011.87;1608551;88;20263;-83
2021/05/03 11:22:43;;;;;;;;;;;;;;;7.44;83.11;101005.48;1647937;85;20753;-79
2021/05/03 11:25:12;;;;;;;;;;;;;;;7.64;83.22;100999.53;1621755;87;20297;-79
2021/05/03 11:33:25;;;;;;;;;;;;;;;8.30;82.77;100984.97;1597324;88;20315;-79
2021/05/03 11:36:03;;;;;;;;;;;;;;;8.48;82.89;100984.52;1602123;88;20310;-79
2021/05/03 11:46:34;;;;;;;;;;;;;;;9.03;82.35;100980.48;1643650;86;20458;-79
2021/05/03 11:49:13;;;;;;;;;;;;;;;9.04;82.15;100976.61;1643698;86;20739;-81
2021/05/03 11:51:52;;;;;;;;;;;;;;;9.01;81.98;100979.20;1628320;87;20354;-81
2021/05/03 11:54:31;;;;;;;;;;;;;;;8.94;81.89;100977.08;1597293;88;20342;-84
2021/05/03 11:57:01;;;;;;;;;;;;;;;8.83;81.72;101003.36;1599627;88;20347;-82
2021/05/03 11:59:27;;;;;;;;;;;;;;;8.61;81.59;101010.28;1619066;87;20293;-83
2021/05/03 12:02:10;;;;;;;;;;;;;;;8.36;81.62;100997.42;1597747;88;20308;-83
2021/05/03 12:04:39;;;;;;;;;;;;;;;8.16;81.74;100987.98;1625480;87;20300;-83
2021/05/03 12:07:26;;;;;;;;;;;;;;;8.17;82.22;100987.55;1618514;87;20265;-83
2021/05/03 12:10:03;;;;;;;;;;;;;;;8.31;82.62;100988.41;1619996;87;20288;-83
2021/05/03 12:12:35;;;;;;;;;;;;;;;8.52;82.90;100981.94;1616332;87;20259;-83
2021/05/03 12:15:04;;;;;;;;;;;;;;;8.71;82.92;100971.16;1619712;87;20207;-84
2021/05/03 12:17:31;;;;;;;;;;;;;;;8.83;82.81;100975.00;1622364;87;20259;-83
2021/05/03 12:20:04;;;;;;;;;;;;;;;8.94;82.66;100977.08;1623299;87;20284;-83
2021/05/03 12:22:30;;;;;;;;;;;;;;;9.00;82.53;100982.64;1618836;87;20262;-83
2021/05/03 12:25:03;;;;;;;;;;;;;;;9.10;82.46;100974.44;1615513;87;20767;-83
2021/05/03 12:27:29;;;;;;;;;;;;;;;9.19;82.30;100979.13;1619123;87;20220;-83
2021/05/03 12:29:56;;;;;;;;;;;;;;;9.35;82.52;100970.03;1625203;86;20191;-83
2021/05/03 12:32:22;;;;;;;;;;;;;;;9.47;82.29;100971.22;1623742;86;20266;-83
2021/05/03 12:34:53;;;;;;;;;;;;;;;9.54;82.25;100972.47;1624994;86;20262;-83
2021/05/03 12:37:23;;;;;;;;;;;;;;;9.57;81.78;100969.02;1618815;87;20287;-83
2021/05/03 12:40:05;;;;;;;;;;;;;;;9.59;81.94;100969.86;1655485;85;20311;-83
2021/05/03 12:42:39;;;;;;;;;;;;;;;9.65;81.68;100970.25;1650947;85;20322;-82
2021/05/03 12:45:15;;;;;;;;;;;;;;;9.63;81.50;100961.23;1657900;85;20278;-82
2021/05/03 12:48:12;;;;;;;;;;;;;;;9.59;81.34;100965.55;1656379;85;20315;-82
2021/05/03 12:50:52;;;;;;;;;;;;;;;9.66;81.50;100960.35;1646965;85;20319;-81
2021/05/03 12:53:29;;;;;;;;;;;;;;;9.79;81.69;100958.97;1642740;85;20436;-75
2021/05/03 13:01:11;;;;;;;;;;;;;;;10.16;81.46;100937.97;1643900;85;20282;-74
2021/05/03 13:06:25;;;;;;;;;;;;;;;10.30;81.26;100942.61;1646094;85;20255;-74
2021/05/03 13:09:14;;;;;;;;;;;;;;;10.42;81.25;100932.56;1650004;85;20272;-74
2021/05/03 13:11:54;;;;;;;;;;;;;;;10.32;80.67;100943.45;1646818;85;20287;-74
2021/05/03 13:22:40;;;;;;;;;;;;;;;9.88;80.61;100964.47;1625155;86;20287;-74
2021/05/03 13:25:31;;;;;;;;;;;;;;;9.70;80.58;100974.52;1620959;86;20510;-74
2021/05/03 13:28:07;;;;;;;;;;;;;;;9.60;80.70;100971.14;1649048;85;20272;-82
2021/05/03 13:30:37;;;;;;;;;;;;;;;9.49;80.57;100961.31;1653708;85;20276;-81
2021/05/03 13:33:03;;;;;;;;;;;;;;;9.39;80.63;100969.97;1640577;85;20263;-81
2021/05/03 13:35:29;;;;;;;;;;;;;;;9.32;80.80;100968.75;1640356;85;20267;-74
2021/05/03 13:37:55;;;;;;;;;;;;;;;9.32;80.80;100973.91;1644967;86;20262;-74
2021/05/03 13:40:21;;;;;;;;;;;;;;;9.38;81.07;100964.82;1604804;88;20224;-74
2021/05/03 13:42:51;;;;;;;;;;;;;;;9.45;80.93;100963.48;1617929;88;20272;-73
2021/05/03 13:45:18;;;;;;;;;;;;;;;9.53;80.96;100956.98;1656582;85;20275;-73